General Electric PE Ratio 2010-2022 | GE

Current and historical p/e ratio for General Electric (GE) from 2010 to 2022. The price to earnings ratio is calculated by taking the latest closing price and dividing it by the most recent earnings per share (EPS) number. The PE ratio is a simple way to assess whether a stock is over or under valued and is the most widely used valuation measure. General Electric PE ratio as of February 02, 2023 is 32.16.

Please refer to the Stock Price Adjustment Guide for more information on our historical prices.

General Electric PE Ratio Historical Data
Date Stock Price TTM Net EPS PE Ratio
2023-02-02 83.94 0.00
2022-12-31 83.79 $-1.98 0.00
2022-09-30 61.85 $-5.53 0.00
2022-06-30 63.53 $-4.24 0.00
2022-03-31 91.19 $-4.58 0.00
2021-12-31 94.06 $-6.23 0.00
2021-09-30 102.49 $-0.52 0.00
2021-06-30 107.03 $-2.72 0.00
2021-03-31 104.33 $-3.68 0.00
2020-12-31 85.75 $4.56 18.81
2020-09-30 49.42 $2.88 17.16
2020-06-30 54.09 $-4.64 0.00
2020-03-31 62.79 $-2.64 0.00
2019-12-31 88.16 $-4.96 0.00
2019-09-30 70.56 $-4.88 0.00
2019-06-30 82.78 $-17.20 0.00
2019-03-31 78.68 $-16.56 0.00
2018-12-31 57.44 $-20.96 0.00
2018-09-30 85.55 $-30.56 0.00
2018-06-30 102.17 $-7.92 0.00
2018-03-31 100.29 $-7.44 0.00
2017-12-31 128.76 $-5.76 0.00
2017-09-30 177.19 $6.40 27.69
2017-06-30 195.97 $6.48 30.24
2017-03-31 214.43 $7.84 27.35
2016-12-31 225.58 $7.20 31.33
2016-09-30 209.86 $9.20 22.81
2016-06-30 221.33 $9.44 23.45
2016-03-31 221.84 $6.00 36.97
2015-12-31 215.68 $-4.72 0.00
2015-09-30 173.32 $-5.76 0.00
2015-06-30 180.95 $-4.96 0.00
2015-03-31 167.56 $-1.12 0.00
2014-12-31 169.11 $12.08 14.00
2014-09-30 169.90 $11.28 15.06
2014-06-30 172.82 $10.96 15.77
2014-03-31 168.88 $10.56 15.99
2013-12-31 181.25 $10.88 16.66
2013-09-30 153.25 $10.64 14.40
2013-06-30 147.61 $10.80 13.67
2013-03-31 145.97 $10.72 13.62
2012-12-31 131.45 $10.32 12.74
2012-09-30 140.95 $10.08 13.98
2012-06-30 128.37 $9.20 13.95
2012-03-31 122.56 $9.68 12.66
2011-12-31 108.41 $9.92 10.93
2011-09-30 91.27 $10.48 8.71
2011-06-30 112.05 $10.16 11.03
2011-03-31 118.16 $9.60 12.31
2010-12-31 107.06 $8.40 12.75
2010-09-30 94.39 $7.28 12.97
2010-06-30 83.15 $7.68 10.83
2010-03-31 104.29 $7.36 14.17
2009-12-31 86.15 $8.08 10.66
Sector Industry Market Cap Revenue
Multi-Sector Conglomerates Diversified Operations $91.719B $76.555B
General Electric Co. is popular for its LEAP aircraft engines, heavy-duty gas turbines, Haliade-X and Cypress wind turbines, and healthcare solutions. Its products and services range from jet engines, airframes, energy production solutions to offshore wind turbines, technologies in medical imaging, and leasing and financing services, etc. It has the following operating segments: Power produces steam & gas turbines, power generation services, and generators. The Power segment includes Gas Power and Power Portfolio. While Gas Power includes GE's gas lifecycle business, Power Portfolio comprises Steam Power Systems, GE Hitachi Nuclear and Power Conversion businesses. Aviation offers commercial jet engines and components, and aftermarket services. Healthcare provides technologies in patient monitoring, medical imaging, drug discovery, patient monitoring. Renewable Energy provides offshore wind turbines, high-voltage equipment, blades for wind turbines (onshore and offshore), and other products and services.
Stock Name Country Market Cap PE Ratio
Danaher (DHR) United States $197.045B 24.72
3M (MMM) United States $66.489B 11.91
Carlisle (CSL) United States $13.306B 13.55
ITT (ITT) United States $7.670B 22.03
Federal Signal (FSS) United States $3.322B 30.43
Griffon (GFF) United States $2.404B 9.24
Vector Group (VGR) United States $2.028B 14.24
Lsb Industries (LXU) United States $1.031B 4.85
Steel Partners Holdings LP (SPLP) United States $0.947B 11.13
National Presto Industries (NPK) United States $0.540B 25.03
INNOVATE (VATE) United States $0.251B 0.00